Time;durP1;ratioP1;P1;durP2;ratioP2;P2;SDS_P1;SDS_P2;PMS_P1;PMS_P2;Temp;Humidity;BMP_temperature;BMP_pressure;BME280_temperature;BME280_humidity;BME280_pressure;Samples;Min_cycle;Max_cycle;Signal;HPM_P1;HPM_P2
2023/09/03 00:01:23;;;;;;;15.70;8.55;;;;;;;25.00;50.60;102194.81;5011578;28;20053;-61
2023/09/03 00:03:48;;;;;;;13.18;7.40;;;;;;;24.98;50.31;102192.25;5011633;28;20053;-62
2023/09/03 00:06:14;;;;;;;9.98;6.20;;;;;;;24.96;50.42;102188.84;5013013;28;20390;-61
2023/09/03 00:08:39;;;;;;;8.68;5.22;;;;;;;24.94;50.40;102184.59;5012846;28;20037;-62
2023/09/03 00:11:05;;;;;;;7.85;5.05;;;;;;;24.90;50.16;102178.66;5011678;28;20489;-62
2023/09/03 00:13:30;;;;;;;8.98;5.95;;;;;;;24.87;50.63;102174.38;5012980;28;20112;-61
2023/09/03 00:15:55;;;;;;;8.10;4.97;;;;;;;24.86;50.55;102172.69;5012767;28;20045;-62
2023/09/03 00:18:21;;;;;;;9.57;5.57;;;;;;;24.85;50.34;102176.47;5012783;28;20034;-62
2023/09/03 00:20:57;;;;;;;9.82;5.30;;;;;;;24.81;50.60;102175.16;5012858;28;20109;-61
2023/09/03 00:23:22;;;;;;;4.82;3.58;;;;;;;24.77;50.48;102171.06;5011743;28;20442;-61
2023/09/03 00:25:48;;;;;;;9.07;4.78;;;;;;;24.74;50.42;102173.31;5014500;28;20088;-61
2023/09/03 00:28:13;;;;;;;9.82;5.72;;;;;;;24.72;50.49;102176.25;5016750;28;20041;-62
2023/09/03 00:30:38;;;;;;;9.35;5.60;;;;;;;24.70;50.86;102178.34;5016823;28;20065;-62
2023/09/03 00:33:04;;;;;;;7.80;4.78;;;;;;;24.67;50.74;102175.97;5015185;28;20068;-62
2023/09/03 00:35:29;;;;;;;9.45;5.88;;;;;;;24.67;50.47;102173.25;5015173;28;20516;-61
2023/09/03 00:37:55;;;;;;;12.30;6.82;;;;;;;24.66;50.74;102181.63;5016513;28;20026;-62
2023/09/03 00:40:21;;;;;;;13.48;8.60;;;;;;;24.66;50.52;102187.13;5015180;28;20513;-61
2023/09/03 00:42:46;;;;;;;14.73;9.18;;;;;;;24.66;50.28;102187.13;5016412;28;20113;-62
2023/09/03 00:45:12;;;;;;;13.73;8.07;;;;;;;24.64;50.13;102176.34;5015099;28;20135;-62
2023/09/03 00:47:37;;;;;;;11.63;7.97;;;;;;;24.64;50.69;102176.34;5016077;28;20038;-62
2023/09/03 00:50:03;;;;;;;12.05;7.03;;;;;;;24.60;50.38;102183.22;5015722;28;20036;-61
2023/09/03 00:52:29;;;;;;;10.85;5.82;;;;;;;24.56;50.49;102187.41;5015051;28;20034;-61
2023/09/03 00:54:54;;;;;;;12.80;6.90;;;;;;;24.54;50.82;102194.13;5015387;28;20413;-61
2023/09/03 00:57:20;;;;;;;11.30;7.10;;;;;;;24.53;50.72;102193.25;5015651;28;20038;-61
2023/09/03 00:59:45;;;;;;;17.17;10.43;;;;;;;24.51;50.61;102195.31;5015196;28;20038;-61
2023/09/03 01:02:13;;;;;;;14.63;8.73;;;;;;;24.46;50.36;102200.50;4998536;28;20477;-61
2023/09/03 01:04:39;;;;;;;15.45;9.68;;;;;;;24.47;50.39;102210.44;5016695;28;20036;-60
2023/09/03 01:07:05;;;;;;;13.50;7.10;;;;;;;24.45;49.99;102212.53;5016121;28;20046;-61
2023/09/03 01:09:30;;;;;;;12.50;7.95;;;;;;;24.43;50.61;102228.28;5014574;28;20045;-62
2023/09/03 01:12:12;;;;;;;14.77;8.70;;;;;;;24.41;50.81;102215.81;4998877;28;20040;-61
2023/09/03 01:15:09;;;;;;;18.38;10.05;;;;;;;24.42;50.66;102218.38;5014512;28;20096;-63
2023/09/03 01:17:46;;;;;;;17.85;10.10;;;;;;;24.42;50.57;102223.84;5015188;28;20054;-62
2023/09/03 01:20:13;;;;;;;20.10;10.77;;;;;;;24.42;50.96;102226.59;5014384;28;20116;-62
2023/09/03 01:22:51;;;;;;;20.35;9.88;;;;;;;24.43;50.61;102225.53;5015805;28;20168;-62
2023/09/03 01:25:52;;;;;;;18.30;10.95;;;;;;;24.42;50.69;102234.81;5015708;28;20100;-62
2023/09/03 01:28:23;;;;;;;17.13;10.27;;;;;;;24.43;51.06;102241.97;5014568;28;20069;-61
2023/09/03 01:30:50;;;;;;;22.70;11.88;;;;;;;24.43;51.05;102244.72;5014275;28;20118;-61
2023/09/03 01:33:16;;;;;;;19.00;10.63;;;;;;;24.43;51.09;102241.97;5015482;28;20577;-62
2023/09/03 01:35:42;;;;;;;23.90;11.20;;;;;;;24.42;51.37;102237.56;5014045;28;20057;-62
2023/09/03 01:38:08;;;;;;;18.80;10.32;;;;;;;24.44;51.01;102238.22;5013785;28;20056;-62
2023/09/03 01:40:33;;;;;;;15.65;8.98;;;;;;;24.45;50.84;102250.03;5014290;28;20058;-62
2023/09/03 01:42:58;;;;;;;13.82;7.78;;;;;;;24.42;50.57;102245.78;5013069;28;20513;-61
2023/09/03 01:45:31;;;;;;;18.65;9.05;;;;;;;24.39;51.27;102251.63;5013589;28;20030;-63
2023/09/03 01:48:04;;;;;;;15.38;8.85;;;;;;;24.36;50.66;102251.97;5013822;28;20453;-62
2023/09/03 01:50:43;;;;;;;19.05;10.15;;;;;;;24.33;50.59;102246.88;5013864;28;20493;-61
2023/09/03 01:53:16;;;;;;;20.88;10.10;;;;;;;24.29;51.14;102246.38;4997311;28;20049;-61
2023/09/03 01:55:47;;;;;;;20.02;10.90;;;;;;;24.31;51.22;102255.28;5013862;28;20026;-62
2023/09/03 01:58:12;;;;;;;19.80;10.45;;;;;;;24.31;51.38;102251.69;4997464;28;20030;-62
2023/09/03 02:00:39;;;;;;;21.45;10.80;;;;;;;24.29;50.98;102245.53;5013470;28;20041;-61
2023/09/03 02:03:05;;;;;;;20.25;10.98;;;;;;;24.27;50.80;102245.72;5013314;28;20113;-61
2023/09/03 02:05:31;;;;;;;15.95;8.48;;;;;;;24.24;51.34;102242.50;5013345;28;20111;-61
2023/09/03 02:07:56;;;;;;;14.68;7.88;;;;;;;24.18;51.15;102235.88;5013265;28;20490;-63
2023/09/03 02:10:21;;;;;;;14.45;8.30;;;;;;;24.13;50.85;102240.19;5013404;28;20033;-60
2023/09/03 02:12:47;;;;;;;14.05;8.07;;;;;;;24.07;50.68;102232.66;5013267;28;20030;-61
2023/09/03 02:15:12;;;;;;;13.23;7.22;;;;;;;24.01;50.72;102234.25;5012856;28;20052;-61
2023/09/03 02:17:37;;;;;;;10.15;6.68;;;;;;;23.93;50.84;102228.84;5014436;28;20054;-62
2023/09/03 02:20:03;;;;;;;11.77;7.50;;;;;;;23.89;50.73;102229.41;4996755;28;20034;-62
2023/09/03 02:22:29;;;;;;;13.25;8.38;;;;;;;23.87;50.74;102231.47;5014338;28;20041;-61
2023/09/03 02:24:54;;;;;;;16.85;8.77;;;;;;;23.86;50.54;102232.50;5014306;28;20030;-61
2023/09/03 02:27:20;;;;;;;24.20;9.13;;;;;;;23.83;50.84;102224.66;5014257;28;20410;-61
2023/09/03 02:29:45;;;;;;;25.38;10.02;;;;;;;23.78;51.11;102225.19;5012817;28;20042;-61
2023/09/03 02:32:11;;;;;;;46.00;11.75;;;;;;;23.75;50.94;102231.88;5014282;28;20087;-61
2023/09/03 02:34:36;;;;;;;13.70;8.15;;;;;;;23.74;51.11;102243.88;4996473;28;20037;-61
2023/09/03 02:37:02;;;;;;;9.20;6.22;;;;;;;23.71;50.87;102246.97;5012829;28;20037;-62
2023/09/03 02:39:28;;;;;;;18.70;10.27;;;;;;;23.73;50.55;102244.03;4994081;28;20038;-64
2023/09/03 02:41:53;;;;;;;13.05;7.30;;;;;;;23.69;51.26;102243.56;5012783;28;20548;-61
2023/09/03 02:44:18;;;;;;;15.05;9.63;;;;;;;23.69;51.38;102246.28;5014026;28;20025;-62
2023/09/03 02:46:44;;;;;;;14.38;7.72;;;;;;;23.67;51.02;102251.06;5013844;28;20105;-61
2023/09/03 02:49:10;;;;;;;14.18;7.60;;;;;;;23.66;50.42;102265.81;4996181;28;20501;-61
2023/09/03 02:51:35;;;;;;;11.82;6.93;;;;;;;23.63;50.54;102265.31;5013885;28;20466;-62
2023/09/03 02:54:01;;;;;;;13.75;7.68;;;;;;;23.61;50.53;102265.50;5012517;28;20079;-61
2023/09/03 02:56:26;;;;;;;13.63;8.00;;;;;;;23.58;50.83;102271.31;5012504;28;20020;-61
2023/09/03 02:58:52;;;;;;;16.30;9.25;;;;;;;23.57;51.13;102271.50;5013808;28;20057;-61
2023/09/03 03:01:19;;;;;;;20.80;11.00;;;;;;;23.57;51.50;102268.75;4996039;28;20104;-61
2023/09/03 03:03:44;;;;;;;15.73;8.35;;;;;;;23.55;50.95;102273.56;5012521;28;20022;-61
2023/09/03 03:06:10;;;;;;;11.73;7.60;;;;;;;23.53;50.95;102268.28;5012296;28;20072;-61
2023/09/03 03:08:36;;;;;;;10.90;6.95;;;;;;;23.48;51.12;102275.31;5013561;28;20033;-61
2023/09/03 03:11:15;;;;;;;11.45;6.55;;;;;;;23.47;50.51;102277.19;5012154;28;20041;-61
2023/09/03 03:13:42;;;;;;;13.35;7.57;;;;;;;23.44;51.49;102283.03;5013773;28;20160;-61
2023/09/03 03:16:10;;;;;;;16.63;8.25;;;;;;;23.41;51.52;102277.03;5012530;28;20030;-61
2023/09/03 03:18:37;;;;;;;17.33;8.73;;;;;;;23.41;51.41;102280.63;4995760;28;20037;-61
2023/09/03 03:21:04;;;;;;;18.67;9.95;;;;;;;23.40;51.20;102273.44;5012149;28;20478;-61
2023/09/03 03:23:30;;;;;;;17.00;9.40;;;;;;;23.39;51.29;102279.97;5013515;28;20154;-61
2023/09/03 03:25:55;;;;;;;12.07;7.03;;;;;;;23.38;50.76;102278.25;5013465;28;20624;-61
2023/09/03 03:28:20;;;;;;;13.23;6.82;;;;;;;23.33;50.99;102275.16;5013653;28;20034;-61
2023/09/03 03:30:46;;;;;;;15.95;6.82;;;;;;;23.32;51.17;102278.91;5014641;28;20049;-62
2023/09/03 03:33:11;;;;;;;17.27;7.15;;;;;;;23.30;51.46;102281.00;5013949;28;20433;-61
2023/09/03 03:35:36;;;;;;;14.70;7.70;;;;;;;23.28;51.56;102288.53;5012100;28;20057;-61
2023/09/03 03:38:02;;;;;;;10.60;6.22;;;;;;;23.27;51.53;102283.22;5013194;28;20030;-61
2023/09/03 03:40:28;;;;;;;12.35;7.82;;;;;;;23.25;50.80;102277.09;5013638;28;20056;-60
2023/09/03 03:42:53;;;;;;;11.70;6.82;;;;;;;23.25;51.09;102275.22;5014050;28;20072;-61
2023/09/03 03:45:18;;;;;;;8.82;6.60;;;;;;;23.24;51.78;102269.91;5013348;28;20030;-61
2023/09/03 03:47:44;;;;;;;10.90;6.68;;;;;;;23.20;51.34;102274.84;5013325;28;20030;-61
2023/09/03 03:50:09;;;;;;;14.27;7.03;;;;;;;23.19;51.68;102263.09;5012914;28;20402;-62
2023/09/03 03:52:34;;;;;;;11.02;6.10;;;;;;;23.16;51.29;102263.44;5013145;28;20444;-61
2023/09/03 03:55:00;;;;;;;9.20;5.70;;;;;;;23.15;51.54;102269.06;4995309;28;20038;-61
2023/09/03 03:57:25;;;;;;;11.30;5.72;;;;;;;23.14;50.68;102270.13;5013067;28;20040;-60
2023/09/03 03:59:51;;;;;;;11.02;6.85;;;;;;;23.12;51.35;102263.94;5014282;28;20029;-61
2023/09/03 04:02:17;;;;;;;9.80;6.50;;;;;;;23.10;51.21;102255.09;5017121;28;20040;-61
2023/09/03 04:04:43;;;;;;;14.90;7.93;;;;;;;23.10;51.62;102263.28;4999357;28;20037;-62
2023/09/03 04:07:08;;;;;;;10.38;6.40;;;;;;;23.09;50.92;102256.09;5015674;28;20034;-60
2023/09/03 04:09:35;;;;;;;11.23;5.85;;;;;;;23.07;51.03;102252.69;5016869;28;20065;-60
2023/09/03 04:12:00;;;;;;;12.35;7.18;;;;;;;23.06;51.23;102242.81;5015517;28;20040;-61
2023/09/03 04:14:26;;;;;;;16.30;7.90;;;;;;;23.03;51.24;102234.97;5016821;28;20038;-61
2023/09/03 04:16:51;;;;;;;16.20;9.07;;;;;;;23.01;51.40;102243.31;5015404;28;20034;-61
2023/09/03 04:19:16;;;;;;;11.38;6.80;;;;;;;23.00;51.17;102235.31;5015712;28;20033;-61
2023/09/03 04:21:42;;;;;;;17.00;7.05;;;;;;;23.01;51.50;102237.00;5015374;28;20037;-60
2023/09/03 04:24:09;;;;;;;15.50;7.05;;;;;;;22.99;50.97;102233.59;4999066;28;20056;-61
2023/09/03 04:26:36;;;;;;;11.10;5.90;;;;;;;22.95;51.00;102232.22;5015387;28;20042;-61
2023/09/03 04:29:03;;;;;;;10.85;6.18;;;;;;;22.94;51.61;102253.25;5014527;28;20030;-61
2023/09/03 04:31:28;;;;;;;12.98;6.68;;;;;;;22.95;50.73;102265.03;4998840;28;20121;-61
2023/09/03 04:33:53;;;;;;;15.77;8.30;;;;;;;22.94;51.86;102282.47;5016577;28;20460;-61
2023/09/03 04:36:19;;;;;;;15.48;9.00;;;;;;;22.94;51.31;102296.13;4998933;28;20026;-60
2023/09/03 04:38:44;;;;;;;17.73;8.77;;;;;;;22.96;51.14;102296.81;5016575;28;20401;-61
2023/09/03 04:41:09;;;;;;;22.80;9.13;;;;;;;22.97;51.05;102306.72;5015026;28;20042;-61
2023/09/03 04:43:44;;;;;;;15.50;8.32;;;;;;;22.99;52.02;102307.41;5016274;28;20494;-61
2023/09/03 04:46:10;;;;;;;21.00;8.48;;;;;;;22.99;51.14;102299.19;5014994;28;20037;-60
2023/09/03 04:48:35;;;;;;;13.00;7.90;;;;;;;22.98;51.03;102309.28;5016382;28;20030;-61
2023/09/03 04:51:07;;;;;;;13.70;7.85;;;;;;;22.95;50.97;102319.69;4998729;28;20383;-61
2023/09/03 04:53:33;;;;;;;13.40;7.20;;;;;;;22.93;51.81;102311.69;5016338;28;20525;-62
2023/09/03 04:56:01;;;;;;;16.35;8.18;;;;;;;22.92;51.90;102320.06;5016262;28;20057;-60
2023/09/03 04:58:26;;;;;;;18.17;8.63;;;;;;;22.90;51.52;102322.09;5014970;28;20022;-61
2023/09/03 05:00:51;;;;;;;16.83;8.68;;;;;;;22.90;50.94;102316.63;5014931;28;20034;-61
2023/09/03 05:03:17;;;;;;;12.98;7.53;;;;;;;22.90;51.71;102316.63;5015981;28;20414;-61
2023/09/03 05:05:43;;;;;;;13.35;7.40;;;;;;;22.90;51.64;102324.81;5015955;28;20048;-60
2023/09/03 05:08:09;;;;;;;15.85;8.15;;;;;;;22.88;51.27;102318.69;5014636;28;20030;-61
2023/09/03 05:10:35;;;;;;;14.65;8.40;;;;;;;22.90;51.00;102327.56;5014254;28;20072;-62
2023/09/03 05:13:03;;;;;;;15.68;8.90;;;;;;;22.87;51.51;102327.91;5015714;28;20050;-62
2023/09/03 05:15:28;;;;;;;17.05;9.18;;;;;;;22.83;51.58;102321.09;5015658;28;20026;-62
2023/09/03 05:17:54;;;;;;;15.93;8.48;;;;;;;22.88;51.86;102340.56;4997933;28;20073;-61
2023/09/03 05:20:19;;;;;;;12.52;7.97;;;;;;;22.92;50.92;102347.41;5015624;28;20038;-61
2023/09/03 05:22:44;;;;;;;14.35;8.30;;;;;;;22.94;51.07;102345.34;4998160;28;20029;-61
2023/09/03 05:25:10;;;;;;;12.25;7.20;;;;;;;22.95;51.03;102352.50;5015689;28;20037;-62
2023/09/03 05:27:35;;;;;;;13.68;6.50;;;;;;;22.98;50.98;102352.16;5015526;28;20030;-61
2023/09/03 05:30:01;;;;;;;13.30;6.93;;;;;;;23.00;51.92;102358.31;5016707;28;20125;-61
2023/09/03 05:32:26;;;;;;;15.57;8.82;;;;;;;23.04;51.06;102356.94;5017298;28;20037;-61
2023/09/03 05:34:51;;;;;;;19.90;11.15;;;;;;;23.08;51.43;102361.03;5016333;28;20092;-60
2023/09/03 05:37:17;;;;;;;17.10;9.98;;;;;;;23.10;51.82;102354.38;5016011;28;20045;-61
2023/09/03 05:39:42;;;;;;;22.48;11.65;;;;;;;23.20;51.70;102362.34;5016208;28;20045;-61
2023/09/03 05:42:08;;;;;;;15.15;9.30;;;;;;;23.25;52.10;102365.44;5015376;28;20038;-62
2023/09/03 05:44:33;;;;;;;18.13;9.30;;;;;;;23.32;52.34;102357.38;5015422;28;20125;-62
2023/09/03 05:46:58;;;;;;;17.10;9.82;;;;;;;23.37;51.99;102374.97;5015349;28;20455;-61
2023/09/03 05:49:24;;;;;;;18.02;9.68;;;;;;;23.44;51.66;102367.81;5013838;28;20061;-61
2023/09/03 05:51:50;;;;;;;15.13;9.68;;;;;;;23.49;51.65;102368.13;5013825;28;20049;-61
2023/09/03 05:54:15;;;;;;;18.13;10.43;;;;;;;23.55;51.85;102364.69;5015299;28;20034;-62
2023/09/03 05:56:41;;;;;;;18.80;10.32;;;;;;;23.63;51.61;102369.28;5015005;28;20034;-61
2023/09/03 05:59:08;;;;;;;20.30;9.85;;;;;;;23.68;51.93;102372.34;5014837;28;20083;-62
2023/09/03 06:01:34;;;;;;;20.58;10.07;;;;;;;23.71;51.72;102372.84;4997645;28;20034;-61
2023/09/03 06:04:04;;;;;;;20.30;10.50;;;;;;;23.76;51.34;102375.91;5013710;28;20034;-62
2023/09/03 06:06:37;;;;;;;17.85;10.88;;;;;;;23.80;51.60;102381.88;5014756;28;20034;-61
2023/09/03 06:09:03;;;;;;;18.95;10.10;;;;;;;23.85;51.29;102384.06;5013329;28;20035;-61
2023/09/03 06:11:29;;;;;;;18.73;10.43;;;;;;;23.90;51.77;102398.09;5015000;28;20038;-61
2023/09/03 06:13:54;;;;;;;18.90;10.20;;;;;;;23.89;51.34;102385.44;5013819;28;20088;-61
2023/09/03 06:16:20;;;;;;;20.38;11.23;;;;;;;23.98;51.71;102406.28;5013723;28;20026;-61
2023/09/03 06:18:46;;;;;;;17.67;9.80;;;;;;;23.98;51.77;102395.31;5014421;28;20078;-60
2023/09/03 06:21:11;;;;;;;19.33;10.55;;;;;;;24.04;51.39;102405.53;5014411;28;20034;-61
2023/09/03 06:23:36;;;;;;;18.98;11.43;;;;;;;24.08;51.26;102402.28;5013613;28;20117;-61
2023/09/03 06:26:02;;;;;;;20.02;11.73;;;;;;;24.12;51.74;102408.28;5013269;28;20062;-61
2023/09/03 06:28:28;;;;;;;21.80;11.13;;;;;;;24.17;51.68;102400.38;5013151;28;20030;-62
2023/09/03 06:30:56;;;;;;;20.65;10.15;;;;;;;24.21;51.50;102396.22;5014301;28;20452;-63
2023/09/03 06:33:22;;;;;;;19.25;11.02;;;;;;;24.25;51.21;102403.06;5013000;28;20038;-61
2023/09/03 06:35:47;;;;;;;19.27;10.52;;;;;;;24.30;51.89;102406.13;5014331;28;20034;-61
2023/09/03 06:38:12;;;;;;;18.08;11.45;;;;;;;24.40;51.68;102417.69;5012843;28;20026;-61
2023/09/03 06:40:38;;;;;;;24.42;11.88;;;;;;;24.48;51.26;102425.88;5012624;28;20034;-62
2023/09/03 06:43:04;;;;;;;26.52;12.10;;;;;;;24.60;51.59;102423.53;5013913;28;20033;-62
2023/09/03 06:45:30;;;;;;;18.45;10.45;;;;;;;24.70;51.15;102429.66;5013832;28;20513;-62
2023/09/03 06:47:56;;;;;;;18.13;10.45;;;;;;;24.81;51.11;102432.88;5013947;28;20089;-62
2023/09/03 06:50:21;;;;;;;20.58;10.68;;;;;;;24.90;51.04;102431.75;5013968;28;20525;-62
2023/09/03 06:52:46;;;;;;;23.75;11.18;;;;;;;25.02;51.12;102434.91;5012372;28;20066;-62
2023/09/03 06:55:12;;;;;;;19.33;10.65;;;;;;;25.15;51.31;102435.16;4996174;28;20038;-62
2023/09/03 06:57:38;;;;;;;24.85;13.13;;;;;;;25.29;50.80;102441.72;5012571;28;20045;-62
2023/09/03 07:00:06;;;;;;;24.75;12.70;;;;;;;25.46;50.81;102433.09;5012593;28;20498;-63
2023/09/03 07:02:31;;;;;;;21.75;12.75;;;;;;;25.66;50.60;102433.44;4996569;28;20041;-62
2023/09/03 07:04:59;;;;;;;25.95;13.02;;;;;;;25.79;50.38;102432.78;5012541;28;20423;-63
2023/09/03 07:07:25;;;;;;;23.77;12.88;;;;;;;25.97;50.56;102442.31;5012423;28;20119;-63
2023/09/03 07:09:52;;;;;;;25.70;13.45;;;;;;;26.14;50.32;102443.00;5013343;28;20042;-63
2023/09/03 07:12:17;;;;;;;23.75;13.02;;;;;;;26.28;50.43;102449.50;5013512;28;20041;-63
2023/09/03 07:14:43;;;;;;;25.20;12.50;;;;;;;26.38;50.05;102450.06;5012132;28;20037;-63
2023/09/03 07:17:08;;;;;;;26.75;12.52;;;;;;;26.55;50.04;102457.88;5013264;28;20045;-63
2023/09/03 07:19:33;;;;;;;26.80;13.27;;;;;;;26.63;49.77;102450.56;5012246;28;20022;-63
2023/09/03 07:21:59;;;;;;;23.92;12.95;;;;;;;26.72;49.95;102452.97;5012171;28;20493;-63
2023/09/03 07:24:24;;;;;;;25.13;13.13;;;;;;;26.81;49.78;102451.84;5012179;28;20037;-63
2023/09/03 07:26:50;;;;;;;24.83;12.65;;;;;;;26.90;49.53;102456.16;5012023;28;20116;-62
2023/09/03 07:29:15;;;;;;;22.92;13.10;;;;;;;26.98;49.66;102458.78;5013088;28;20453;-62
2023/09/03 07:31:43;;;;;;;24.90;11.95;;;;;;;27.08;49.72;102469.47;5013123;28;20037;-62
2023/09/03 07:34:09;;;;;;;25.80;14.05;;;;;;;27.19;48.93;102467.00;5011984;28;20038;-62
2023/09/03 07:36:34;;;;;;;22.05;12.93;;;;;;;27.35;49.06;102476.91;5013380;28;20030;-62
2023/09/03 07:38:59;;;;;;;27.15;12.57;;;;;;;27.50;48.85;102485.94;5012176;28;20041;-62
2023/09/03 07:41:25;;;;;;;23.52;13.27;;;;;;;27.62;48.68;102483.47;5012153;28;20066;-63
2023/09/03 07:43:51;;;;;;;20.60;12.63;;;;;;;27.69;48.83;102487.16;5011994;28;20041;-62
2023/09/03 07:46:17;;;;;;;25.40;14.00;;;;;;;27.73;48.23;102496.69;5013443;28;20102;-62
2023/09/03 07:48:42;;;;;;;21.80;12.57;;;;;;;27.87;48.34;102492.97;5012171;28;20033;-62
2023/09/03 07:51:08;;;;;;;25.05;14.52;;;;;;;27.99;48.04;102485.84;5012117;28;20030;-63
2023/09/03 07:53:33;;;;;;;23.45;14.45;;;;;;;28.25;48.59;102491.50;5012089;28;20030;-63
2023/09/03 07:55:58;;;;;;;25.50;16.60;;;;;;;28.42;47.11;102483.72;5012172;28;20034;-62
2023/09/03 07:58:24;;;;;;;26.85;14.77;;;;;;;28.52;47.60;102483.34;5013376;28;20036;-62
2023/09/03 08:00:50;;;;;;;25.30;14.30;;;;;;;28.65;46.99;102488.94;4995680;28;20510;-62
2023/09/03 08:03:15;;;;;;;28.23;15.07;;;;;;;28.71;47.81;102497.25;5011911;28;20034;-63
2023/09/03 08:05:40;;;;;;;27.80;15.35;;;;;;;28.82;47.68;102495.78;5012867;28;20587;-63
2023/09/03 08:08:06;;;;;;;27.73;14.23;;;;;;;29.05;47.17;102501.78;5011473;28;20044;-63
2023/09/03 08:10:32;;;;;;;21.40;13.65;;;;;;;29.28;46.69;102504.16;5012788;28;20041;-63
2023/09/03 08:12:57;;;;;;;25.55;14.13;;;;;;;29.39;46.19;102501.63;5012726;28;20033;-63
2023/09/03 08:15:22;;;;;;;27.63;14.40;;;;;;;29.67;46.17;102495.00;5012657;28;20145;-62
2023/09/03 08:17:48;;;;;;;21.60;12.60;;;;;;;29.86;46.21;102488.63;4992551;28;20089;-64
2023/09/03 08:20:13;;;;;;;23.02;13.70;;;;;;;30.05;46.10;102484.09;5012753;28;20093;-63
2023/09/03 08:22:38;;;;;;;24.58;14.95;;;;;;;30.37;45.48;102495.09;5012688;28;20529;-61
2023/09/03 08:25:04;;;;;;;24.35;14.60;;;;;;;30.56;45.27;102491.38;5011491;28;20072;-62
2023/09/03 08:27:30;;;;;;;25.25;14.75;;;;;;;30.73;44.97;102488.09;4994797;28;20084;-63
2023/09/03 08:29:56;;;;;;;27.45;15.45;;;;;;;30.99;44.46;102485.19;5011279;28;20399;-62
2023/09/03 08:32:21;;;;;;;23.45;14.50;;;;;;;31.24;44.32;102483.25;5011337;28;20050;-62
2023/09/03 08:34:46;;;;;;;21.33;14.57;;;;;;;31.22;44.79;102477.09;5011434;28;20497;-62
2023/09/03 08:37:12;;;;;;;25.35;14.57;;;;;;;31.27;44.83;102485.59;5011287;28;20375;-62
2023/09/03 08:39:37;;;;;;;24.08;14.68;;;;;;;31.28;44.29;102487.28;5012697;28;20549;-62
2023/09/03 08:42:03;;;;;;;22.02;14.38;;;;;;;31.27;44.46;102491.13;5012490;28;20026;-62
2023/09/03 08:44:36;;;;;;;24.23;14.85;;;;;;;31.36;43.93;102491.69;5011347;28;20018;-62
2023/09/03 08:47:03;;;;;;;25.83;15.25;;;;;;;31.39;44.22;102491.25;5015315;28;20029;-62
2023/09/03 08:49:30;;;;;;;25.88;14.07;;;;;;;31.51;43.93;102490.31;5016019;28;20501;-62
2023/09/03 08:51:57;;;;;;;22.88;14.40;;;;;;;31.54;43.24;102487.09;5016038;28;20021;-62
2023/09/03 08:54:22;;;;;;;23.77;14.00;;;;;;;31.67;43.40;102492.50;5014767;28;20136;-62
2023/09/03 08:56:48;;;;;;;26.77;15.27;;;;;;;31.81;43.74;102492.38;5014908;28;20042;-61
2023/09/03 08:59:14;;;;;;;27.45;15.63;;;;;;;31.94;43.50;102489.47;5016175;28;20161;-62
2023/09/03 09:01:39;;;;;;;24.10;14.02;;;;;;;32.23;43.30;102485.94;5014582;28;20030;-61
2023/09/03 09:04:05;;;;;;;23.88;14.02;;;;;;;32.48;41.88;102492.22;5014666;28;20033;-63
2023/09/03 09:06:31;;;;;;;23.25;14.27;;;;;;;32.55;43.08;102494.97;5014593;28;20026;-62
2023/09/03 09:08:59;;;;;;;25.33;13.25;;;;;;;32.73;42.49;102492.97;4998008;28;20034;-62
2023/09/03 09:11:31;;;;;;;23.38;14.50;;;;;;;33.07;41.78;102476.69;4997003;28;20041;-61
2023/09/03 09:13:57;;;;;;;23.35;11.85;;;;;;;33.19;41.31;102474.78;5015982;28;20072;-62
2023/09/03 09:16:23;;;;;;;26.63;12.70;;;;;;;33.39;41.95;102478.91;5014542;28;20064;-62
2023/09/03 09:18:48;;;;;;;25.02;13.95;;;;;;;33.59;41.07;102473.03;5013890;28;20084;-62
2023/09/03 09:21:14;;;;;;;24.13;13.43;;;;;;;33.75;41.36;102472.28;5014238;28;20026;-63
2023/09/03 09:23:40;;;;;;;21.48;11.70;;;;;;;34.00;40.21;102465.63;5014575;28;20088;-62
2023/09/03 09:26:18;;;;;;;16.92;11.38;;;;;;;34.19;40.25;102464.38;5014285;28;20401;-62
2023/09/03 09:29:00;;;;;;;19.65;12.18;;;;;;;34.43;40.28;102477.13;5014147;28;20045;-62
2023/09/03 09:31:29;;;;;;;19.05;11.10;;;;;;;34.62;39.66;102475.84;5014069;28;20117;-62
2023/09/03 09:33:55;;;;;;;19.25;12.00;;;;;;;34.84;38.89;102468.47;5013967;28;20037;-62
2023/09/03 09:36:20;;;;;;;22.52;11.50;;;;;;;35.15;38.81;102469.06;5015212;28;20026;-62
2023/09/03 09:38:46;;;;;;;13.50;9.85;;;;;;;35.32;38.50;102458.75;5013998;28;20121;-63
2023/09/03 09:41:21;;;;;;;13.70;9.63;;;;;;;35.53;37.61;102457.97;5015388;28;20079;-63
2023/09/03 09:43:46;;;;;;;14.35;9.60;;;;;;;35.82;37.26;102464.28;4997717;28;20030;-62
2023/09/03 09:46:33;;;;;;;11.90;8.60;;;;;;;36.24;36.58;102471.00;4997514;28;20048;-63
2023/09/03 09:49:00;;;;;;;13.65;8.15;;;;;;;37.26;35.81;102477.44;5014902;28;20113;-64
2023/09/03 09:51:27;;;;;;;12.60;7.63;;;;;;;38.80;33.20;102484.47;4997316;28;20064;-63
2023/09/03 09:54:00;;;;;;;9.18;6.82;;;;;;;38.55;32.89;102476.00;5013754;28;20038;-62
2023/09/03 09:56:36;;;;;;;10.38;6.65;;;;;;;38.12;33.56;102469.66;5013190;28;20498;-61
2023/09/03 09:59:03;;;;;;;9.32;5.72;;;;;;;37.85;33.60;102475.38;5013133;28;20030;-62
2023/09/03 10:01:46;;;;;;;9.70;6.35;;;;;;;37.64;33.81;102483.91;5013689;28;20057;-63
2023/09/03 10:04:11;;;;;;;8.48;5.63;;;;;;;37.56;33.97;102478.81;5013307;28;20532;-62
2023/09/03 10:06:37;;;;;;;8.82;5.88;;;;;;;37.69;34.00;102481.97;5013788;28;20018;-62
2023/09/03 10:09:03;;;;;;;10.10;6.18;;;;;;;37.76;32.75;102487.34;5013580;28;20122;-62
2023/09/03 10:11:28;;;;;;;10.02;6.30;;;;;;;37.89;32.79;102486.88;5014503;28;20030;-62
2023/09/03 10:13:55;;;;;;;10.15;6.68;;;;;;;37.97;32.92;102488.34;5014946;28;20030;-62
2023/09/03 10:16:21;;;;;;;11.65;6.30;;;;;;;37.86;33.22;102496.63;5013102;28;20053;-63
2023/09/03 10:18:48;;;;;;;13.23;7.55;;;;;;;37.83;33.10;102496.34;5013134;28;20049;-63
2023/09/03 10:21:18;;;;;;;10.68;8.27;;;;;;;37.75;33.36;102483.69;5013216;28;20106;-61
2023/09/03 10:23:51;;;;;;;11.63;8.20;;;;;;;37.82;32.13;102489.91;5013535;28;20041;-63
2023/09/03 10:26:20;;;;;;;12.68;8.85;;;;;;;37.77;32.43;102483.44;5013205;28;20105;-63
2023/09/03 10:28:48;;;;;;;17.13;8.25;;;;;;;37.66;32.93;102482.50;5013028;28;20030;-61
2023/09/03 10:31:16;;;;;;;12.65;7.55;;;;;;;37.54;32.61;102478.25;5013120;28;20030;-61
2023/09/03 10:33:41;;;;;;;13.85;7.55;;;;;;;37.39;33.52;102478.09;5014138;28;20034;-61
2023/09/03 10:36:17;;;;;;;10.63;5.22;;;;;;;37.30;33.05;102473.00;5013159;28;20034;-61
2023/09/03 10:38:44;;;;;;;7.05;5.03;;;;;;;37.34;32.36;102473.31;5012863;28;20497;-63
2023/09/03 10:41:35;;;;;;;8.68;6.38;;;;;;;37.38;33.04;102473.63;5014154;28;20409;-63
2023/09/03 10:44:14;;;;;;;9.30;5.75;;;;;;;37.50;32.53;102465.88;5013114;28;20033;-63
2023/09/03 10:46:58;;;;;;;9.55;5.72;;;;;;;37.80;32.72;102466.09;5014012;28;20026;-64
2023/09/03 10:49:42;;;;;;;12.55;7.97;;;;;;;38.02;31.27;102461.22;5014116;28;20038;-63
2023/09/03 10:52:26;;;;;;;9.75;6.45;;;;;;;38.25;31.97;102465.50;5012903;28;20088;-63
2023/09/03 10:55:12;;;;;;;9.75;6.22;;;;;;;38.40;31.25;102455.22;5014031;28;20034;-63
2023/09/03 10:57:38;;;;;;;10.48;6.93;;;;;;;38.51;31.51;102461.69;5013626;28;20061;-62
2023/09/03 11:00:06;;;;;;;10.25;6.82;;;;;;;38.59;31.28;102461.13;5012676;28;20030;-62
2023/09/03 11:02:33;;;;;;;11.35;7.55;;;;;;;38.62;31.14;102463.38;5013788;28;20088;-62
2023/09/03 11:05:19;;;;;;;9.68;7.63;;;;;;;38.53;31.14;102475.44;5012507;28;20117;-61
2023/09/03 11:07:45;;;;;;;13.43;7.35;;;;;;;38.47;31.16;102466.16;5013673;28;20038;-62
2023/09/03 11:10:19;;;;;;;13.85;8.60;;;;;;;38.52;31.13;102468.13;5013269;28;20117;-62
2023/09/03 11:12:48;;;;;;;12.23;6.70;;;;;;;38.49;31.89;102468.69;5013817;28;20057;-64
2023/09/03 11:15:14;;;;;;;10.05;6.13;;;;;;;38.51;31.88;102472.03;5013141;28;20536;-62